Aviation Digital Data Service (ADDS)

Output produced by METARs form (1211 UTC 01 October 2014)
found at http://www.aviationweather.gov/adds/metars/
 
Forecast for: KSJC (SAN JOSE , CA, US)
Text: KSJC 011120Z 0112/0212 VRB03KT P6SM SKC
Forecast period: 1200 to 2000 UTC 01 October 2014
Forecast type: FROM: standard forecast or significant change
Winds: variable direction winds at 3 MPH (3 knots; 1.6 m/s)
Visibility: 6 or more miles (10+ km)
Clouds: clear skies
Weather: no significant weather forecast for this period
Text: FM012000 30010KT P6SM SKC
Forecast period: 2000 UTC 01 October 2014 to 0300 UTC 02 October 2014
Forecast type: FROM: standard forecast or significant change
Winds: from the WNW (300 degrees) at 12 MPH (10 knots; 5.2 m/s)
Visibility: 6 or more miles (10+ km)
Clouds: clear skies
Weather: no significant weather forecast for this period
Text: FM020300 VRB03KT P6SM SKC
Forecast period: 0300 to 1200 UTC 02 October 2014
Forecast type: FROM: standard forecast or significant change
Winds: variable direction winds at 3 MPH (3 knots; 1.6 m/s)
Visibility: 6 or more miles (10+ km)
Clouds: clear skies
Weather: no significant weather forecast for this period